sensor_id;sensor_type;location;lat;lon;timestamp;P1;durP1;ratioP1;P2;durP2;ratioP2
11709;SDS011;5911;51.036;6.972;2022-10-01T00:01:09;4.93;;;4.43;;
11709;SDS011;5911;51.036;6.972;2022-10-01T00:03:38;7.73;;;4.40;;
11709;SDS011;5911;51.036;6.972;2022-10-01T00:06:08;5.17;;;4.23;;
11709;SDS011;5911;51.036;6.972;2022-10-01T00:08:38;6.07;;;3.57;;
11709;SDS011;5911;51.036;6.972;2022-10-01T00:11:10;6.97;;;3.40;;
11709;SDS011;5911;51.036;6.972;2022-10-01T00:13:39;4.10;;;3.70;;
11709;SDS011;5911;51.036;6.972;2022-10-01T00:16:09;7.33;;;3.97;;
11709;SDS011;5911;51.036;6.972;2022-10-01T00:18:39;5.07;;;3.60;;
11709;SDS011;5911;51.036;6.972;2022-10-01T00:21:08;5.33;;;3.40;;
11709;SDS011;5911;51.036;6.972;2022-10-01T00:23:37;3.63;;;3.07;;
11709;SDS011;5911;51.036;6.972;2022-10-01T00:26:11;5.27;;;4.03;;
11709;SDS011;5911;51.036;6.972;2022-10-01T00:28:42;6.70;;;4.17;;
11709;SDS011;5911;51.036;6.972;2022-10-01T00:31:11;4.37;;;3.63;;
11709;SDS011;5911;51.036;6.972;2022-10-01T00:33:41;4.43;;;3.87;;
11709;SDS011;5911;51.036;6.972;2022-10-01T00:36:09;5.43;;;3.57;;
11709;SDS011;5911;51.036;6.972;2022-10-01T00:38:38;7.43;;;4.00;;
11709;SDS011;5911;51.036;6.972;2022-10-01T00:41:07;4.13;;;3.73;;
11709;SDS011;5911;51.036;6.972;2022-10-01T00:43:40;5.10;;;3.17;;
11709;SDS011;5911;51.036;6.972;2022-10-01T00:46:13;5.80;;;3.50;;
11709;SDS011;5911;51.036;6.972;2022-10-01T00:48:48;5.73;;;3.97;;
11709;SDS011;5911;51.036;6.972;2022-10-01T00:51:22;5.27;;;4.17;;
11709;SDS011;5911;51.036;6.972;2022-10-01T00:53:53;5.80;;;4.00;;
11709;SDS011;5911;51.036;6.972;2022-10-01T00:56:24;4.57;;;4.17;;
11709;SDS011;5911;51.036;6.972;2022-10-01T00:58:55;8.50;;;4.17;;
11709;SDS011;5911;51.036;6.972;2022-10-01T01:01:24;6.77;;;3.97;;
11709;SDS011;5911;51.036;6.972;2022-10-01T01:03:52;9.60;;;4.83;;
11709;SDS011;5911;51.036;6.972;2022-10-01T01:06:19;4.97;;;4.40;;
11709;SDS011;5911;51.036;6.972;2022-10-01T01:08:48;7.03;;;4.37;;
11709;SDS011;5911;51.036;6.972;2022-10-01T01:11:23;5.60;;;4.53;;
11709;SDS011;5911;51.036;6.972;2022-10-01T01:14:01;6.00;;;5.00;;
11709;SDS011;5911;51.036;6.972;2022-10-01T01:16:37;6.20;;;5.03;;
11709;SDS011;5911;51.036;6.972;2022-10-01T01:19:14;5.30;;;4.57;;
11709;SDS011;5911;51.036;6.972;2022-10-01T01:21:58;6.47;;;5.30;;
11709;SDS011;5911;51.036;6.972;2022-10-01T01:24:34;9.10;;;5.33;;
11709;SDS011;5911;51.036;6.972;2022-10-01T01:27:24;8.87;;;5.53;;
11709;SDS011;5911;51.036;6.972;2022-10-01T01:29:59;8.33;;;5.37;;
11709;SDS011;5911;51.036;6.972;2022-10-01T01:32:31;5.73;;;4.60;;
11709;SDS011;5911;51.036;6.972;2022-10-01T01:35:07;7.70;;;6.60;;
11709;SDS011;5911;51.036;6.972;2022-10-01T01:37:40;9.70;;;8.73;;
11709;SDS011;5911;51.036;6.972;2022-10-01T01:40:13;12.17;;;8.37;;
11709;SDS011;5911;51.036;6.972;2022-10-01T01:42:43;10.10;;;6.97;;
11709;SDS011;5911;51.036;6.972;2022-10-01T01:45:16;10.37;;;5.97;;
11709;SDS011;5911;51.036;6.972;2022-10-01T01:47:47;6.43;;;5.50;;
11709;SDS011;5911;51.036;6.972;2022-10-01T01:50:16;6.90;;;4.97;;
11709;SDS011;5911;51.036;6.972;2022-10-01T01:52:45;10.47;;;5.07;;
11709;SDS011;5911;51.036;6.972;2022-10-01T01:55:12;6.73;;;5.03;;
11709;SDS011;5911;51.036;6.972;2022-10-01T01:57:41;5.33;;;4.83;;
11709;SDS011;5911;51.036;6.972;2022-10-01T02:00:11;6.13;;;5.30;;
11709;SDS011;5911;51.036;6.972;2022-10-01T02:02:41;6.10;;;5.57;;
11709;SDS011;5911;51.036;6.972;2022-10-01T02:05:14;8.63;;;6.10;;
11709;SDS011;5911;51.036;6.972;2022-10-01T02:07:52;7.90;;;5.47;;
11709;SDS011;5911;51.036;6.972;2022-10-01T02:10:37;6.10;;;5.10;;
11709;SDS011;5911;51.036;6.972;2022-10-01T02:13:18;5.63;;;5.13;;
11709;SDS011;5911;51.036;6.972;2022-10-01T02:15:56;6.13;;;5.13;;
11709;SDS011;5911;51.036;6.972;2022-10-01T02:18:33;6.50;;;5.90;;
11709;SDS011;5911;51.036;6.972;2022-10-01T02:21:11;6.03;;;5.13;;
11709;SDS011;5911;51.036;6.972;2022-10-01T02:23:47;5.13;;;4.67;;
11709;SDS011;5911;51.036;6.972;2022-10-01T02:26:19;6.83;;;5.93;;
11709;SDS011;5911;51.036;6.972;2022-10-01T02:28:49;5.90;;;5.40;;
11709;SDS011;5911;51.036;6.972;2022-10-01T02:31:21;9.80;;;6.37;;
11709;SDS011;5911;51.036;6.972;2022-10-01T02:33:52;7.07;;;5.40;;
11709;SDS011;5911;51.036;6.972;2022-10-01T02:36:21;5.10;;;4.17;;
11709;SDS011;5911;51.036;6.972;2022-10-01T02:38:52;5.47;;;4.30;;
11709;SDS011;5911;51.036;6.972;2022-10-01T02:41:24;5.27;;;4.53;;
11709;SDS011;5911;51.036;6.972;2022-10-01T02:43:58;5.33;;;4.27;;
11709;SDS011;5911;51.036;6.972;2022-10-01T02:46:29;6.07;;;4.30;;
11709;SDS011;5911;51.036;6.972;2022-10-01T02:49:05;5.37;;;4.27;;
11709;SDS011;5911;51.036;6.972;2022-10-01T02:51:36;5.77;;;3.93;;
11709;SDS011;5911;51.036;6.972;2022-10-01T02:54:12;5.63;;;4.40;;
11709;SDS011;5911;51.036;6.972;2022-10-01T02:56:44;5.87;;;4.23;;
11709;SDS011;5911;51.036;6.972;2022-10-01T02:59:31;5.63;;;4.00;;
11709;SDS011;5911;51.036;6.972;2022-10-01T03:01:59;8.00;;;4.17;;
11709;SDS011;5911;51.036;6.972;2022-10-01T03:04:29;5.33;;;4.10;;
11709;SDS011;5911;51.036;6.972;2022-10-01T03:06:57;8.20;;;4.37;;
11709;SDS011;5911;51.036;6.972;2022-10-01T03:09:28;10.93;;;4.50;;
11709;SDS011;5911;51.036;6.972;2022-10-01T03:11:56;5.33;;;4.20;;
11709;SDS011;5911;51.036;6.972;2022-10-01T03:14:24;6.43;;;4.43;;
11709;SDS011;5911;51.036;6.972;2022-10-01T03:16:52;7.63;;;4.90;;
11709;SDS011;5911;51.036;6.972;2022-10-01T03:19:20;5.43;;;4.90;;
11709;SDS011;5911;51.036;6.972;2022-10-01T03:21:49;4.90;;;4.40;;
11709;SDS011;5911;51.036;6.972;2022-10-01T03:24:17;7.80;;;5.43;;
11709;SDS011;5911;51.036;6.972;2022-10-01T03:26:45;7.23;;;5.00;;
11709;SDS011;5911;51.036;6.972;2022-10-01T03:29:12;6.57;;;4.70;;
11709;SDS011;5911;51.036;6.972;2022-10-01T03:31:40;5.10;;;4.20;;
11709;SDS011;5911;51.036;6.972;2022-10-01T03:34:08;4.40;;;4.00;;
11709;SDS011;5911;51.036;6.972;2022-10-01T03:36:38;5.97;;;4.43;;
11709;SDS011;5911;51.036;6.972;2022-10-01T03:39:07;6.23;;;4.13;;
11709;SDS011;5911;51.036;6.972;2022-10-01T03:41:35;5.97;;;4.30;;
11709;SDS011;5911;51.036;6.972;2022-10-01T03:44:03;6.03;;;4.37;;
11709;SDS011;5911;51.036;6.972;2022-10-01T03:46:31;5.77;;;4.13;;
11709;SDS011;5911;51.036;6.972;2022-10-01T03:48:59;5.23;;;3.80;;
11709;SDS011;5911;51.036;6.972;2022-10-01T03:51:27;5.77;;;4.07;;
11709;SDS011;5911;51.036;6.972;2022-10-01T03:53:55;4.53;;;3.87;;
11709;SDS011;5911;51.036;6.972;2022-10-01T03:56:25;4.37;;;3.97;;
11709;SDS011;5911;51.036;6.972;2022-10-01T03:58:52;5.63;;;4.80;;
11709;SDS011;5911;51.036;6.972;2022-10-01T04:01:20;4.27;;;3.73;;
11709;SDS011;5911;51.036;6.972;2022-10-01T04:03:48;7.37;;;3.90;;
11709;SDS011;5911;51.036;6.972;2022-10-01T04:06:17;6.73;;;4.27;;
11709;SDS011;5911;51.036;6.972;2022-10-01T04:08:45;6.30;;;4.90;;
11709;SDS011;5911;51.036;6.972;2022-10-01T04:11:13;4.83;;;4.17;;
11709;SDS011;5911;51.036;6.972;2022-10-01T04:13:42;4.80;;;4.30;;
11709;SDS011;5911;51.036;6.972;2022-10-01T04:16:10;5.97;;;4.43;;
11709;SDS011;5911;51.036;6.972;2022-10-01T04:18:38;5.67;;;4.83;;
11709;SDS011;5911;51.036;6.972;2022-10-01T04:21:05;7.07;;;4.53;;
11709;SDS011;5911;51.036;6.972;2022-10-01T04:23:33;5.87;;;4.43;;
11709;SDS011;5911;51.036;6.972;2022-10-01T04:26:01;6.20;;;3.67;;
11709;SDS011;5911;51.036;6.972;2022-10-01T04:28:30;4.83;;;3.77;;
11709;SDS011;5911;51.036;6.972;2022-10-01T04:30:59;4.63;;;3.97;;
11709;SDS011;5911;51.036;6.972;2022-10-01T04:33:41;4.80;;;3.10;;
11709;SDS011;5911;51.036;6.972;2022-10-01T04:36:09;2.30;;;2.10;;
11709;SDS011;5911;51.036;6.972;2022-10-01T04:38:37;3.40;;;1.57;;
11709;SDS011;5911;51.036;6.972;2022-10-01T04:41:04;1.30;;;1.20;;
11709;SDS011;5911;51.036;6.972;2022-10-01T04:43:32;2.80;;;1.60;;
11709;SDS011;5911;51.036;6.972;2022-10-01T04:46:01;3.70;;;1.33;;
11709;SDS011;5911;51.036;6.972;2022-10-01T04:48:29;1.50;;;1.00;;
11709;SDS011;5911;51.036;6.972;2022-10-01T04:50:57;2.40;;;1.00;;
11709;SDS011;5911;51.036;6.972;2022-10-01T04:53:25;2.43;;;0.77;;
11709;SDS011;5911;51.036;6.972;2022-10-01T04:55:52;0.80;;;0.80;;
11709;SDS011;5911;51.036;6.972;2022-10-01T04:58:21;1.00;;;0.67;;
11709;SDS011;5911;51.036;6.972;2022-10-01T05:00:48;0.87;;;0.70;;
11709;SDS011;5911;51.036;6.972;2022-10-01T05:03:18;0.50;;;0.50;;
11709;SDS011;5911;51.036;6.972;2022-10-01T05:05:46;1.20;;;0.73;;
11709;SDS011;5911;51.036;6.972;2022-10-01T05:08:14;0.90;;;0.80;;
11709;SDS011;5911;51.036;6.972;2022-10-01T05:10:41;1.30;;;0.63;;
11709;SDS011;5911;51.036;6.972;2022-10-01T05:13:09;0.60;;;0.60;;
11709;SDS011;5911;51.036;6.972;2022-10-01T05:15:37;0.67;;;0.40;;
11709;SDS011;5911;51.036;6.972;2022-10-01T05:18:05;0.60;;;0.60;;
11709;SDS011;5911;51.036;6.972;2022-10-01T05:20:34;0.50;;;0.50;;
11709;SDS011;5911;51.036;6.972;2022-10-01T05:23:03;2.50;;;0.67;;
11709;SDS011;5911;51.036;6.972;2022-10-01T05:25:31;2.23;;;0.50;;
11709;SDS011;5911;51.036;6.972;2022-10-01T05:27:59;0.87;;;0.57;;
11709;SDS011;5911;51.036;6.972;2022-10-01T05:30:31;0.47;;;0.40;;
11709;SDS011;5911;51.036;6.972;2022-10-01T05:33:00;0.30;;;0.30;;
11709;SDS011;5911;51.036;6.972;2022-10-01T05:35:29;0.87;;;0.47;;
11709;SDS011;5911;51.036;6.972;2022-10-01T05:38:00;0.63;;;0.43;;
11709;SDS011;5911;51.036;6.972;2022-10-01T05:40:29;1.67;;;0.60;;
11709;SDS011;5911;51.036;6.972;2022-10-01T05:42:57;0.47;;;0.47;;
11709;SDS011;5911;51.036;6.972;2022-10-01T05:45:26;2.00;;;0.70;;
11709;SDS011;5911;51.036;6.972;2022-10-01T05:47:54;0.93;;;0.40;;
11709;SDS011;5911;51.036;6.972;2022-10-01T05:50:24;2.87;;;0.60;;
11709;SDS011;5911;51.036;6.972;2022-10-01T05:52:52;0.67;;;0.50;;
11709;SDS011;5911;51.036;6.972;2022-10-01T05:55:22;0.60;;;0.50;;
11709;SDS011;5911;51.036;6.972;2022-10-01T05:57:53;0.40;;;0.30;;
11709;SDS011;5911;51.036;6.972;2022-10-01T06:00:22;1.87;;;0.80;;
11709;SDS011;5911;51.036;6.972;2022-10-01T06:02:54;1.50;;;0.70;;
11709;SDS011;5911;51.036;6.972;2022-10-01T06:05:23;0.40;;;0.40;;
11709;SDS011;5911;51.036;6.972;2022-10-01T06:07:55;0.40;;;0.40;;
11709;SDS011;5911;51.036;6.972;2022-10-01T06:10:24;0.37;;;0.37;;
11709;SDS011;5911;51.036;6.972;2022-10-01T06:12:57;1.47;;;0.50;;
11709;SDS011;5911;51.036;6.972;2022-10-01T06:15:27;0.73;;;0.50;;
11709;SDS011;5911;51.036;6.972;2022-10-01T06:17:55;0.60;;;0.60;;
11709;SDS011;5911;51.036;6.972;2022-10-01T06:20:24;1.20;;;0.40;;
11709;SDS011;5911;51.036;6.972;2022-10-01T06:22:53;0.60;;;0.60;;
11709;SDS011;5911;51.036;6.972;2022-10-01T06:25:22;0.60;;;0.50;;
11709;SDS011;5911;51.036;6.972;2022-10-01T06:27:52;0.40;;;0.40;;
11709;SDS011;5911;51.036;6.972;2022-10-01T06:30:24;0.60;;;0.60;;
11709;SDS011;5911;51.036;6.972;2022-10-01T06:32:52;1.67;;;0.40;;
11709;SDS011;5911;51.036;6.972;2022-10-01T06:35:20;1.17;;;0.50;;
11709;SDS011;5911;51.036;6.972;2022-10-01T06:37:48;0.50;;;0.40;;
11709;SDS011;5911;51.036;6.972;2022-10-01T06:40:16;0.70;;;0.40;;
11709;SDS011;5911;51.036;6.972;2022-10-01T06:42:45;0.97;;;0.60;;
11709;SDS011;5911;51.036;6.972;2022-10-01T06:45:18;0.67;;;0.67;;
11709;SDS011;5911;51.036;6.972;2022-10-01T06:47:51;0.50;;;0.47;;
11709;SDS011;5911;51.036;6.972;2022-10-01T06:50:20;0.50;;;0.43;;
11709;SDS011;5911;51.036;6.972;2022-10-01T06:52:50;0.70;;;0.50;;
11709;SDS011;5911;51.036;6.972;2022-10-01T06:55:19;0.80;;;0.53;;
11709;SDS011;5911;51.036;6.972;2022-10-01T06:57:52;1.00;;;0.47;;
11709;SDS011;5911;51.036;6.972;2022-10-01T07:00:22;0.43;;;0.33;;
11709;SDS011;5911;51.036;6.972;2022-10-01T07:02:52;0.70;;;0.60;;
11709;SDS011;5911;51.036;6.972;2022-10-01T07:05:20;0.40;;;0.40;;
11709;SDS011;5911;51.036;6.972;2022-10-01T07:07:49;0.40;;;0.40;;
11709;SDS011;5911;51.036;6.972;2022-10-01T07:10:17;0.20;;;0.20;;
11709;SDS011;5911;51.036;6.972;2022-10-01T07:12:46;0.60;;;0.60;;
11709;SDS011;5911;51.036;6.972;2022-10-01T07:15:15;0.60;;;0.40;;
11709;SDS011;5911;51.036;6.972;2022-10-01T07:17:46;1.27;;;0.40;;
11709;SDS011;5911;51.036;6.972;2022-10-01T07:20:15;0.50;;;0.50;;
11709;SDS011;5911;51.036;6.972;2022-10-01T07:22:44;0.47;;;0.40;;
11709;SDS011;5911;51.036;6.972;2022-10-01T07:25:13;0.93;;;0.67;;
11709;SDS011;5911;51.036;6.972;2022-10-01T07:27:41;2.33;;;0.57;;
11709;SDS011;5911;51.036;6.972;2022-10-01T07:30:09;0.57;;;0.40;;
11709;SDS011;5911;51.036;6.972;2022-10-01T07:32:37;1.07;;;0.47;;
11709;SDS011;5911;51.036;6.972;2022-10-01T07:35:06;0.47;;;0.43;;
11709;SDS011;5911;51.036;6.972;2022-10-01T07:37:37;0.83;;;0.60;;
11709;SDS011;5911;51.036;6.972;2022-10-01T07:40:05;1.73;;;0.50;;
11709;SDS011;5911;51.036;6.972;2022-10-01T07:42:33;0.40;;;0.40;;
11709;SDS011;5911;51.036;6.972;2022-10-01T07:45:02;1.80;;;0.53;;
11709;SDS011;5911;51.036;6.972;2022-10-01T07:47:31;0.33;;;0.33;;
11709;SDS011;5911;51.036;6.972;2022-10-01T07:50:02;0.80;;;0.43;;
11709;SDS011;5911;51.036;6.972;2022-10-01T07:52:34;0.40;;;0.40;;
11709;SDS011;5911;51.036;6.972;2022-10-01T07:55:04;0.43;;;0.40;;
11709;SDS011;5911;51.036;6.972;2022-10-01T07:57:36;0.40;;;0.40;;
11709;SDS011;5911;51.036;6.972;2022-10-01T08:00:05;0.47;;;0.47;;
11709;SDS011;5911;51.036;6.972;2022-10-01T08:02:37;0.60;;;0.60;;
11709;SDS011;5911;51.036;6.972;2022-10-01T08:05:05;0.80;;;0.50;;
11709;SDS011;5911;51.036;6.972;2022-10-01T08:07:45;0.40;;;0.40;;
11709;SDS011;5911;51.036;6.972;2022-10-01T08:10:14;0.57;;;0.57;;
11709;SDS011;5911;51.036;6.972;2022-10-01T08:12:43;0.50;;;0.50;;
11709;SDS011;5911;51.036;6.972;2022-10-01T08:15:13;0.67;;;0.50;;
11709;SDS011;5911;51.036;6.972;2022-10-01T08:17:43;1.63;;;0.40;;
11709;SDS011;5911;51.036;6.972;2022-10-01T08:20:11;1.87;;;0.60;;
11709;SDS011;5911;51.036;6.972;2022-10-01T08:22:40;2.30;;;0.40;;
11709;SDS011;5911;51.036;6.972;2022-10-01T08:25:09;0.80;;;0.43;;
11709;SDS011;5911;51.036;6.972;2022-10-01T08:27:37;1.10;;;0.67;;
11709;SDS011;5911;51.036;6.972;2022-10-01T08:30:05;0.90;;;0.50;;
11709;SDS011;5911;51.036;6.972;2022-10-01T08:32:34;1.10;;;0.50;;
11709;SDS011;5911;51.036;6.972;2022-10-01T08:35:02;0.90;;;0.60;;
11709;SDS011;5911;51.036;6.972;2022-10-01T08:37:30;1.23;;;0.70;;
11709;SDS011;5911;51.036;6.972;2022-10-01T08:39:58;0.77;;;0.63;;
11709;SDS011;5911;51.036;6.972;2022-10-01T08:42:38;0.97;;;0.83;;
11709;SDS011;5911;51.036;6.972;2022-10-01T08:45:15;1.50;;;0.93;;
11709;SDS011;5911;51.036;6.972;2022-10-01T08:47:49;1.23;;;0.70;;
11709;SDS011;5911;51.036;6.972;2022-10-01T08:50:25;0.93;;;0.70;;
11709;SDS011;5911;51.036;6.972;2022-10-01T08:53:02;1.93;;;0.90;;
11709;SDS011;5911;51.036;6.972;2022-10-01T08:55:33;1.33;;;0.57;;
11709;SDS011;5911;51.036;6.972;2022-10-01T08:58:04;1.43;;;0.77;;
11709;SDS011;5911;51.036;6.972;2022-10-01T09:00:38;0.67;;;0.60;;
11709;SDS011;5911;51.036;6.972;2022-10-01T09:03:09;2.20;;;0.80;;
11709;SDS011;5911;51.036;6.972;2022-10-01T09:05:42;1.87;;;1.10;;
11709;SDS011;5911;51.036;6.972;2022-10-01T09:08:21;1.13;;;0.77;;
11709;SDS011;5911;51.036;6.972;2022-10-01T09:11:13;4.30;;;1.40;;
11709;SDS011;5911;51.036;6.972;2022-10-01T09:13:57;3.00;;;1.37;;
11709;SDS011;5911;51.036;6.972;2022-10-01T09:16:34;3.67;;;1.00;;
11709;SDS011;5911;51.036;6.972;2022-10-01T09:19:08;2.40;;;1.07;;
11709;SDS011;5911;51.036;6.972;2022-10-01T09:21:49;1.50;;;1.23;;
11709;SDS011;5911;51.036;6.972;2022-10-01T09:24:26;6.50;;;1.20;;
11709;SDS011;5911;51.036;6.972;2022-10-01T09:27:09;3.70;;;1.40;;
11709;SDS011;5911;51.036;6.972;2022-10-01T09:29:43;2.20;;;1.30;;
11709;SDS011;5911;51.036;6.972;2022-10-01T09:32:17;4.30;;;1.70;;
11709;SDS011;5911;51.036;6.972;2022-10-01T09:34:47;2.97;;;1.30;;
11709;SDS011;5911;51.036;6.972;2022-10-01T09:37:19;3.53;;;1.70;;
11709;SDS011;5911;51.036;6.972;2022-10-01T09:39:56;3.60;;;1.40;;
11709;SDS011;5911;51.036;6.972;2022-10-01T09:42:29;2.33;;;1.50;;
11709;SDS011;5911;51.036;6.972;2022-10-01T09:45:01;2.23;;;1.60;;
11709;SDS011;5911;51.036;6.972;2022-10-01T09:47:30;3.60;;;1.90;;
11709;SDS011;5911;51.036;6.972;2022-10-01T09:49:59;4.70;;;2.10;;
11709;SDS011;5911;51.036;6.972;2022-10-01T09:52:33;6.93;;;2.20;;
11709;SDS011;5911;51.036;6.972;2022-10-01T09:55:05;3.60;;;2.90;;
11709;SDS011;5911;51.036;6.972;2022-10-01T09:57:46;3.70;;;2.50;;
11709;SDS011;5911;51.036;6.972;2022-10-01T10:00:20;6.37;;;2.70;;
11709;SDS011;5911;51.036;6.972;2022-10-01T10:02:50;4.33;;;2.70;;
11709;SDS011;5911;51.036;6.972;2022-10-01T10:05:20;4.73;;;2.47;;
11709;SDS011;5911;51.036;6.972;2022-10-01T10:07:50;3.87;;;2.37;;
11709;SDS011;5911;51.036;6.972;2022-10-01T10:10:21;4.77;;;2.37;;
11709;SDS011;5911;51.036;6.972;2022-10-01T10:12:56;3.17;;;2.50;;
11709;SDS011;5911;51.036;6.972;2022-10-01T10:15:28;5.93;;;2.83;;
11709;SDS011;5911;51.036;6.972;2022-10-01T10:18:02;5.93;;;3.00;;
11709;SDS011;5911;51.036;6.972;2022-10-01T10:20:35;8.20;;;3.07;;
11709;SDS011;5911;51.036;6.972;2022-10-01T10:23:06;4.87;;;3.33;;
11709;SDS011;5911;51.036;6.972;2022-10-01T10:25:35;6.47;;;3.60;;
11709;SDS011;5911;51.036;6.972;2022-10-01T10:28:03;9.10;;;4.10;;
11709;SDS011;5911;51.036;6.972;2022-10-01T10:30:33;4.67;;;2.97;;
11709;SDS011;5911;51.036;6.972;2022-10-01T10:33:04;4.70;;;3.07;;
11709;SDS011;5911;51.036;6.972;2022-10-01T10:35:33;4.77;;;2.93;;
11709;SDS011;5911;51.036;6.972;2022-10-01T10:38:02;5.83;;;3.10;;
11709;SDS011;5911;51.036;6.972;2022-10-01T10:40:31;6.57;;;3.20;;
11709;SDS011;5911;51.036;6.972;2022-10-01T10:43:11;5.37;;;2.53;;
11709;SDS011;5911;51.036;6.972;2022-10-01T10:45:47;3.47;;;2.00;;
11709;SDS011;5911;51.036;6.972;2022-10-01T10:48:22;4.17;;;2.20;;
11709;SDS011;5911;51.036;6.972;2022-10-01T10:50:57;5.97;;;2.13;;
11709;SDS011;5911;51.036;6.972;2022-10-01T10:53:27;3.53;;;1.83;;
11709;SDS011;5911;51.036;6.972;2022-10-01T10:55:59;4.63;;;2.43;;
11709;SDS011;5911;51.036;6.972;2022-10-01T10:58:29;3.73;;;2.30;;
11709;SDS011;5911;51.036;6.972;2022-10-01T11:01:00;4.83;;;2.60;;
11709;SDS011;5911;51.036;6.972;2022-10-01T11:03:35;4.30;;;2.43;;
11709;SDS011;5911;51.036;6.972;2022-10-01T11:06:08;4.77;;;2.47;;
11709;SDS011;5911;51.036;6.972;2022-10-01T11:08:37;4.03;;;2.40;;
11709;SDS011;5911;51.036;6.972;2022-10-01T11:11:09;5.33;;;2.63;;
11709;SDS011;5911;51.036;6.972;2022-10-01T11:13:54;5.23;;;2.53;;
11709;SDS011;5911;51.036;6.972;2022-10-01T11:16:47;4.63;;;2.47;;
11709;SDS011;5911;51.036;6.972;2022-10-01T11:19:28;5.45;;;2.42;;
11709;SDS011;5911;51.036;6.972;2022-10-01T11:22:09;6.75;;;2.90;;
11709;SDS011;5911;51.036;6.972;2022-10-01T11:24:51;5.67;;;3.00;;
11709;SDS011;5911;51.036;6.972;2022-10-01T11:27:33;7.53;;;2.60;;
11709;SDS011;5911;51.036;6.972;2022-10-01T11:30:12;4.95;;;2.45;;
11709;SDS011;5911;51.036;6.972;2022-10-01T11:32:49;7.85;;;2.25;;
11709;SDS011;5911;51.036;6.972;2022-10-01T11:35:38;7.53;;;2.90;;
11709;SDS011;5911;51.036;6.972;2022-10-01T11:38:24;8.85;;;3.00;;
11709;SDS011;5911;51.036;6.972;2022-10-01T11:41:08;6.68;;;2.90;;
11709;SDS011;5911;51.036;6.972;2022-10-01T11:43:45;7.70;;;3.03;;
11709;SDS011;5911;51.036;6.972;2022-10-01T11:46:33;6.27;;;2.77;;
11709;SDS011;5911;51.036;6.972;2022-10-01T11:52:13;9.57;;;3.00;;
11709;SDS011;5911;51.036;6.972;2022-10-01T11:54:51;6.28;;;2.42;;
11709;SDS011;5911;51.036;6.972;2022-10-01T11:57:46;6.28;;;2.28;;
11709;SDS011;5911;51.036;6.972;2022-10-01T12:00:37;7.38;;;2.28;;
11709;SDS011;5911;51.036;6.972;2022-10-01T12:03:09;5.83;;;2.53;;
11709;SDS011;5911;51.036;6.972;2022-10-01T12:05:46;7.10;;;2.70;;
11709;SDS011;5911;51.036;6.972;2022-10-01T12:08:15;4.65;;;2.35;;
11709;SDS011;5911;51.036;6.972;2022-10-01T12:10:53;5.55;;;2.10;;
11709;SDS011;5911;51.036;6.972;2022-10-01T12:13:25;7.88;;;2.70;;
11709;SDS011;5911;51.036;6.972;2022-10-01T12:15:59;7.50;;;2.50;;
11709;SDS011;5911;51.036;6.972;2022-10-01T12:18:35;9.07;;;2.60;;
11709;SDS011;5911;51.036;6.972;2022-10-01T12:21:17;4.45;;;2.00;;
11709;SDS011;5911;51.036;6.972;2022-10-01T12:23:49;5.07;;;2.30;;
11709;SDS011;5911;51.036;6.972;2022-10-01T12:26:22;4.03;;;1.90;;
11709;SDS011;5911;51.036;6.972;2022-10-01T12:29:01;3.90;;;2.00;;
11709;SDS011;5911;51.036;6.972;2022-10-01T12:31:39;5.07;;;2.38;;
11709;SDS011;5911;51.036;6.972;2022-10-01T12:34:13;4.72;;;2.03;;
11709;SDS011;5911;51.036;6.972;2022-10-01T12:36:51;3.45;;;2.33;;
11709;SDS011;5911;51.036;6.972;2022-10-01T12:39:33;6.23;;;2.30;;
11709;SDS011;5911;51.036;6.972;2022-10-01T12:42:13;6.00;;;2.00;;
11709;SDS011;5911;51.036;6.972;2022-10-01T12:44:58;4.53;;;2.00;;
11709;SDS011;5911;51.036;6.972;2022-10-01T12:47:39;7.33;;;2.43;;
11709;SDS011;5911;51.036;6.972;2022-10-01T12:50:17;5.28;;;2.13;;
11709;SDS011;5911;51.036;6.972;2022-10-01T12:52:53;7.53;;;2.30;;
11709;SDS011;5911;51.036;6.972;2022-10-01T12:55:36;4.45;;;2.25;;
11709;SDS011;5911;51.036;6.972;2022-10-01T12:58:37;5.10;;;2.08;;
11709;SDS011;5911;51.036;6.972;2022-10-01T13:01:19;5.78;;;2.17;;
11709;SDS011;5911;51.036;6.972;2022-10-01T13:04:02;6.03;;;2.00;;
11709;SDS011;5911;51.036;6.972;2022-10-01T13:06:42;3.33;;;1.65;;
11709;SDS011;5911;51.036;6.972;2022-10-01T13:09:26;2.55;;;1.80;;
11709;SDS011;5911;51.036;6.972;2022-10-01T13:12:04;4.67;;;1.87;;
11709;SDS011;5911;51.036;6.972;2022-10-01T13:14:43;4.73;;;2.10;;
11709;SDS011;5911;51.036;6.972;2022-10-01T13:17:13;5.10;;;1.92;;
11709;SDS011;5911;51.036;6.972;2022-10-01T13:19:49;4.10;;;2.27;;
11709;SDS011;5911;51.036;6.972;2022-10-01T13:22:27;7.07;;;2.22;;
11709;SDS011;5911;51.036;6.972;2022-10-01T13:25:08;8.23;;;2.80;;
11709;SDS011;5911;51.036;6.972;2022-10-01T13:27:52;5.93;;;2.13;;
11709;SDS011;5911;51.036;6.972;2022-10-01T13:30:25;9.70;;;2.30;;
11709;SDS011;5911;51.036;6.972;2022-10-01T13:32:59;6.13;;;2.80;;
11709;SDS011;5911;51.036;6.972;2022-10-01T13:35:28;8.60;;;2.63;;
11709;SDS011;5911;51.036;6.972;2022-10-01T13:38:11;6.03;;;2.53;;
11709;SDS011;5911;51.036;6.972;2022-10-01T13:40:41;5.63;;;2.53;;
11709;SDS011;5911;51.036;6.972;2022-10-01T13:43:13;8.73;;;2.40;;
11709;SDS011;5911;51.036;6.972;2022-10-01T13:45:44;8.40;;;2.60;;
11709;SDS011;5911;51.036;6.972;2022-10-01T13:48:14;7.10;;;2.53;;
11709;SDS011;5911;51.036;6.972;2022-10-01T13:50:52;7.20;;;2.77;;
11709;SDS011;5911;51.036;6.972;2022-10-01T13:53:24;8.73;;;2.30;;
11709;SDS011;5911;51.036;6.972;2022-10-01T13:55:56;6.07;;;2.00;;
11709;SDS011;5911;51.036;6.972;2022-10-01T13:58:31;12.20;;;2.80;;
11709;SDS011;5911;51.036;6.972;2022-10-01T14:01:05;8.43;;;2.55;;
11709;SDS011;5911;51.036;6.972;2022-10-01T14:03:54;6.03;;;2.73;;
11709;SDS011;5911;51.036;6.972;2022-10-01T14:06:28;7.10;;;2.03;;
11709;SDS011;5911;51.036;6.972;2022-10-01T14:09:04;8.98;;;2.40;;
11709;SDS011;5911;51.036;6.972;2022-10-01T14:11:40;7.43;;;2.00;;
11709;SDS011;5911;51.036;6.972;2022-10-01T14:14:30;6.37;;;2.47;;
11709;SDS011;5911;51.036;6.972;2022-10-01T14:17:18;9.60;;;2.70;;
11709;SDS011;5911;51.036;6.972;2022-10-01T14:19:49;5.80;;;2.03;;
11709;SDS011;5911;51.036;6.972;2022-10-01T14:22:21;7.85;;;2.33;;
11709;SDS011;5911;51.036;6.972;2022-10-01T14:25:05;9.18;;;2.75;;
11709;SDS011;5911;51.036;6.972;2022-10-01T14:27:44;3.43;;;2.20;;
11709;SDS011;5911;51.036;6.972;2022-10-01T14:30:19;6.63;;;2.27;;
11709;SDS011;5911;51.036;6.972;2022-10-01T14:33:04;9.32;;;2.30;;
11709;SDS011;5911;51.036;6.972;2022-10-01T14:35:45;5.90;;;2.30;;
11709;SDS011;5911;51.036;6.972;2022-10-01T14:38:20;4.80;;;2.30;;
11709;SDS011;5911;51.036;6.972;2022-10-01T14:40:49;6.80;;;2.22;;
11709;SDS011;5911;51.036;6.972;2022-10-01T14:43:19;8.57;;;2.15;;
11709;SDS011;5911;51.036;6.972;2022-10-01T14:45:51;10.32;;;2.58;;
11709;SDS011;5911;51.036;6.972;2022-10-01T14:48:21;6.65;;;2.08;;
11709;SDS011;5911;51.036;6.972;2022-10-01T14:50:50;9.38;;;2.38;;
11709;SDS011;5911;51.036;6.972;2022-10-01T14:53:21;6.40;;;1.90;;
11709;SDS011;5911;51.036;6.972;2022-10-01T14:55:50;5.78;;;2.08;;
11709;SDS011;5911;51.036;6.972;2022-10-01T14:58:22;7.65;;;2.20;;
11709;SDS011;5911;51.036;6.972;2022-10-01T15:00:54;8.32;;;1.70;;
11709;SDS011;5911;51.036;6.972;2022-10-01T15:03:24;3.77;;;1.73;;
11709;SDS011;5911;51.036;6.972;2022-10-01T15:06:00;5.50;;;1.70;;
11709;SDS011;5911;51.036;6.972;2022-10-01T15:08:37;7.65;;;2.20;;
11709;SDS011;5911;51.036;6.972;2022-10-01T15:11:06;8.95;;;2.05;;
11709;SDS011;5911;51.036;6.972;2022-10-01T15:13:40;6.97;;;2.20;;
11709;SDS011;5911;51.036;6.972;2022-10-01T15:16:10;5.90;;;2.05;;
11709;SDS011;5911;51.036;6.972;2022-10-01T15:18:41;6.88;;;1.83;;
11709;SDS011;5911;51.036;6.972;2022-10-01T15:21:13;7.20;;;2.33;;
11709;SDS011;5911;51.036;6.972;2022-10-01T15:23:45;6.40;;;1.92;;
11709;SDS011;5911;51.036;6.972;2022-10-01T15:26:17;5.95;;;1.80;;
11709;SDS011;5911;51.036;6.972;2022-10-01T15:28:59;4.93;;;1.30;;
11709;SDS011;5911;51.036;6.972;2022-10-01T15:31:28;3.25;;;1.20;;
11709;SDS011;5911;51.036;6.972;2022-10-01T15:33:58;5.13;;;1.40;;
11709;SDS011;5911;51.036;6.972;2022-10-01T15:36:27;3.88;;;1.55;;